createdAt,value
2023-09-08T00:00:16.476Z,93256.47
2023-09-08T00:02:46.127Z,93250.78
2023-09-08T00:05:17.396Z,93256.88
2023-09-08T00:07:46.953Z,93260.53
2023-09-08T00:10:16.683Z,93258.88
2023-09-08T00:12:46.489Z,93258.63
2023-09-08T00:15:16.270Z,93248.03
2023-09-08T00:17:48.747Z,93244.38
2023-09-08T00:20:20.220Z,93252.38
2023-09-08T00:22:50.022Z,93251.47
2023-09-08T00:25:19.824Z,93249.81
2023-09-08T00:27:49.463Z,93250.28
2023-09-08T00:30:19.266Z,93245.03
2023-09-08T00:32:49.088Z,93264.25
2023-09-08T00:35:20.560Z,93244.38
2023-09-08T00:37:50.208Z,93246.66
2023-09-08T00:40:20.544Z,93238.97
2023-09-08T00:42:50.446Z,93247.78
2023-09-08T00:47:26.549Z,93244.16
2023-09-08T00:49:56.180Z,93240.59
2023-09-08T00:52:41.000Z,93246.56
2023-09-08T00:55:11.604Z,93245.28
2023-09-08T00:57:41.461Z,93240.66
2023-09-08T01:00:13.308Z,93238.03
2023-09-08T01:02:46.674Z,93235.16
2023-09-08T01:05:17.666Z,93234.19
2023-09-08T01:07:48.331Z,93224.25
2023-09-08T01:10:18.238Z,93228.16
2023-09-08T01:12:47.939Z,93232.53
2023-09-08T01:15:17.475Z,93224.13
2023-09-08T01:17:48.743Z,93228.28
2023-09-08T01:20:23.836Z,93222.84
2023-09-08T01:23:19.936Z,93218.38
2023-09-08T01:25:57.539Z,93220.59
2023-09-08T01:28:28.389Z,93208.56
2023-09-08T01:31:00.167Z,93206.41
2023-09-08T01:33:30.956Z,93210.25
2023-09-08T01:36:00.782Z,93204.66
2023-09-08T01:38:30.608Z,93198.00
2023-09-08T01:41:03.125Z,93200.13
2023-09-08T01:43:32.917Z,93201.34
2023-09-08T01:46:02.621Z,93194.44
2023-09-08T01:48:32.711Z,93190.59
2023-09-08T01:51:02.819Z,93191.06
2023-09-08T01:53:32.584Z,93199.84
2023-09-08T01:56:03.619Z,93202.00
2023-09-08T01:59:24.099Z,93205.34
2023-09-08T02:01:53.707Z,93197.28
2023-09-08T02:04:24.668Z,93195.00
2023-09-08T02:06:54.450Z,93207.50
2023-09-08T02:09:24.469Z,93192.41
2023-09-08T02:11:55.659Z,93199.63
2023-09-08T02:14:25.243Z,93195.06
2023-09-08T02:16:55.139Z,93190.13
2023-09-08T02:19:25.242Z,93193.31
2023-09-08T02:21:54.959Z,93192.94
2023-09-08T02:24:24.773Z,93192.16
2023-09-08T02:26:57.146Z,93189.53
2023-09-08T02:29:26.482Z,93183.72
2023-09-08T02:31:56.134Z,93180.63
2023-09-08T02:34:25.889Z,93184.50
2023-09-08T02:36:55.560Z,93182.44
2023-09-08T02:39:28.233Z,93182.41
2023-09-08T02:41:59.358Z,93173.25
2023-09-08T02:44:28.930Z,93179.22
2023-09-08T02:46:58.822Z,93176.81
2023-09-08T02:49:29.776Z,93178.44
2023-09-08T02:51:59.441Z,93171.66
2023-09-08T02:54:29.155Z,93172.88
2023-09-08T02:57:00.353Z,93169.81
2023-09-08T02:59:29.965Z,93172.41
2023-09-08T03:02:00.442Z,93178.50
2023-09-08T03:04:30.237Z,93177.53
2023-09-08T03:06:59.962Z,93168.66
2023-09-08T03:09:29.703Z,93167.00
2023-09-08T03:12:00.877Z,93167.94
2023-09-08T03:14:30.882Z,93167.94
2023-09-08T03:17:00.682Z,93166.84
2023-09-08T03:19:30.850Z,93165.19
2023-09-08T03:22:00.554Z,93160.28
2023-09-08T03:24:30.314Z,93162.88
2023-09-08T03:27:01.667Z,93156.03
2023-09-08T03:29:31.199Z,93165.91
2023-09-08T03:32:01.007Z,93163.69
2023-09-08T03:34:30.874Z,93156.56
2023-09-08T03:37:00.819Z,93158.91
2023-09-08T03:39:30.541Z,93157.50
2023-09-08T03:42:01.826Z,93160.72
2023-09-08T03:44:31.640Z,93163.22
2023-09-08T03:48:26.096Z,93156.97
2023-09-08T03:50:55.804Z,93156.66
2023-09-08T03:53:25.443Z,93160.25
2023-09-08T03:55:55.356Z,93159.16
2023-09-08T03:58:25.181Z,93159.31
2023-09-08T04:00:54.866Z,93170.00
2023-09-08T04:03:26.043Z,93162.69
2023-09-08T04:05:55.771Z,93168.09
2023-09-08T04:08:25.944Z,93169.91
2023-09-08T04:10:55.665Z,93170.06
2023-09-08T04:13:25.414Z,93166.88
2023-09-08T04:15:55.051Z,93175.50
2023-09-08T04:18:26.391Z,93170.22
2023-09-08T04:20:56.261Z,93171.16
2023-09-08T04:23:26.302Z,93176.88
2023-09-08T04:25:56.097Z,93178.53
2023-09-08T04:28:25.787Z,93183.50
2023-09-08T04:30:55.403Z,93186.53
2023-09-08T04:33:27.317Z,93184.00
2023-09-08T04:35:57.034Z,93181.47
2023-09-08T04:38:26.826Z,93191.22
2023-09-08T04:40:56.562Z,93199.66
2023-09-08T04:43:26.394Z,93201.19
2023-09-08T04:45:56.000Z,93197.41
2023-09-08T04:48:29.197Z,93199.03
2023-09-08T04:51:00.604Z,93198.25
2023-09-08T04:53:30.317Z,93196.41
2023-09-08T04:55:59.928Z,93202.31
2023-09-08T04:58:29.688Z,93209.72
2023-09-08T05:00:59.211Z,93204.06
2023-09-08T05:03:32.167Z,93206.31
2023-09-08T05:06:02.793Z,93197.66
2023-09-08T05:08:32.426Z,93200.59
2023-09-08T05:11:02.183Z,93211.59
2023-09-08T05:13:32.199Z,93197.75
2023-09-08T05:16:12.801Z,93198.19
2023-09-08T05:18:44.473Z,93203.69
2023-09-08T05:21:15.618Z,93208.25
2023-09-08T05:23:45.236Z,93219.06
2023-09-08T05:26:14.922Z,93213.50
2023-09-08T05:28:45.068Z,93219.78
2023-09-08T05:31:15.207Z,93214.16
2023-09-08T05:33:47.732Z,93219.16
2023-09-08T05:36:17.437Z,93236.75
2023-09-08T05:38:47.004Z,93231.97
2023-09-08T05:41:16.669Z,93228.34
2023-09-08T05:43:46.899Z,93231.22
2023-09-08T05:46:19.748Z,93233.41
2023-09-08T05:48:51.038Z,93239.25
2023-09-08T05:51:21.034Z,93234.28
2023-09-08T05:53:50.751Z,93226.63
2023-09-08T05:56:22.477Z,93233.25
2023-09-08T05:58:52.246Z,93235.97
2023-09-08T06:01:22.978Z,93245.75
2023-09-08T06:03:56.007Z,93234.97
2023-09-08T06:06:26.665Z,93233.00
2023-09-08T06:08:56.317Z,93244.94
2023-09-08T06:11:26.087Z,93250.06
2023-09-08T06:14:00.405Z,93252.22
2023-09-08T06:16:30.223Z,93244.25
2023-09-08T06:19:01.822Z,93250.53
2023-09-08T06:21:31.281Z,93249.84
2023-09-08T06:24:00.866Z,93266.16
2023-09-08T06:26:30.406Z,93247.25
2023-09-08T06:28:59.965Z,93242.13
2023-09-08T06:31:29.982Z,93248.59
2023-09-08T06:34:01.113Z,93257.53
2023-09-08T06:36:30.974Z,93250.53
2023-09-08T06:39:00.743Z,93253.16
2023-09-08T06:41:30.354Z,93249.81
2023-09-08T06:43:59.948Z,93256.13
2023-09-08T06:48:26.126Z,93263.41
2023-09-08T06:50:57.839Z,93271.03
2023-09-08T06:53:27.652Z,93271.03
2023-09-08T06:55:57.424Z,93270.31
2023-09-08T06:58:27.082Z,93272.38
2023-09-08T07:00:57.123Z,93271.00
2023-09-08T07:03:29.099Z,93272.78
2023-09-08T07:05:58.891Z,93270.47
2023-09-08T07:08:28.702Z,93265.41
2023-09-08T07:10:58.984Z,93268.00
2023-09-08T07:13:28.991Z,93267.00
2023-09-08T07:15:58.823Z,93269.31
2023-09-08T07:18:30.152Z,93267.00
2023-09-08T07:20:59.674Z,93269.94
2023-09-08T07:23:29.680Z,93271.53
2023-09-08T07:25:59.430Z,93274.44
2023-09-08T07:28:29.041Z,93278.47
2023-09-08T07:31:05.102Z,93278.22
2023-09-08T07:33:36.304Z,93277.47
2023-09-08T07:36:08.658Z,93267.38
2023-09-08T07:38:38.637Z,93268.41
2023-09-08T07:41:08.394Z,93277.84
2023-09-08T07:43:42.128Z,93275.84
2023-09-08T07:46:12.137Z,93267.06
2023-09-08T07:48:43.344Z,93275.91
2023-09-08T07:51:13.041Z,93268.09
2023-09-08T07:53:43.123Z,93262.44
2023-09-08T07:56:12.699Z,93276.94
2023-09-08T07:58:42.351Z,93278.84
2023-09-08T08:01:12.610Z,93268.56
2023-09-08T08:03:43.711Z,93273.03
2023-09-08T08:06:13.471Z,93274.44
2023-09-08T08:08:43.159Z,93259.97
2023-09-08T08:11:15.205Z,93261.34
2023-09-08T08:13:44.821Z,93286.50
2023-09-08T08:16:14.917Z,93271.84
2023-09-08T08:18:46.125Z,93262.94
2023-09-08T08:21:15.930Z,93274.09
2023-09-08T08:23:45.691Z,93264.38
2023-09-08T08:26:15.349Z,93257.16
2023-09-08T08:28:45.074Z,93258.81
2023-09-08T08:31:14.893Z,93263.91
2023-09-08T08:33:46.168Z,93261.91
2023-09-08T08:36:16.687Z,93251.38
2023-09-08T08:38:46.391Z,93253.66
2023-09-08T08:41:16.097Z,93252.50
2023-09-08T08:43:47.170Z,93254.19
2023-09-08T08:46:17.472Z,93251.06
2023-09-08T08:48:50.442Z,93243.63
2023-09-08T08:51:22.321Z,93245.34
2023-09-08T08:53:52.021Z,93249.75
2023-09-08T08:56:21.738Z,93240.19
2023-09-08T08:58:52.410Z,93247.44
2023-09-08T09:01:22.980Z,93240.78
2023-09-08T09:03:55.416Z,93250.00
2023-09-08T09:06:25.277Z,93263.19
2023-09-08T09:08:54.940Z,93245.16
2023-09-08T09:11:24.844Z,93254.06
2023-09-08T09:13:54.433Z,93251.09
2023-09-08T09:16:24.150Z,93255.91
2023-09-08T09:19:00.523Z,93250.28
2023-09-08T09:21:47.528Z,93247.97
2023-09-08T09:24:22.312Z,93244.78
2023-09-08T09:26:55.951Z,93251.66
2023-09-08T09:29:25.696Z,93249.03
2023-09-08T09:31:56.750Z,93249.38
2023-09-08T09:34:27.922Z,93249.53
2023-09-08T09:36:58.314Z,93256.34
2023-09-08T09:39:29.324Z,93255.53
2023-09-08T09:42:00.774Z,93261.84
2023-09-08T09:44:30.393Z,93256.72
2023-09-08T09:48:27.142Z,93250.81
2023-09-08T09:50:56.904Z,93259.66
2023-09-08T09:53:27.135Z,93261.63
2023-09-08T09:55:58.239Z,93253.75
2023-09-08T09:58:30.007Z,93249.19
2023-09-08T10:01:02.275Z,93245.41
2023-09-08T10:03:35.068Z,93249.19
2023-09-08T10:06:07.163Z,93241.50
2023-09-08T10:08:38.675Z,93247.16
2023-09-08T10:11:10.667Z,93259.50
2023-09-08T10:13:46.780Z,93241.81
2023-09-08T10:16:21.825Z,93245.53
2023-09-08T10:18:55.820Z,93241.91
2023-09-08T10:21:29.787Z,93234.59
2023-09-08T10:24:18.654Z,93237.09
2023-09-08T10:26:54.400Z,93242.22
2023-09-08T10:29:26.192Z,93237.72
2023-09-08T10:31:56.623Z,93229.56
2023-09-08T10:34:29.021Z,93244.59
2023-09-08T10:36:58.820Z,93237.16
2023-09-08T10:39:33.640Z,93225.34
2023-09-08T10:42:27.493Z,93216.75
2023-09-08T10:45:05.644Z,93207.97
2023-09-08T10:47:56.714Z,93203.53
2023-09-08T10:50:36.274Z,93209.59
2023-09-08T10:53:16.986Z,93214.91
2023-09-08T10:56:10.612Z,93208.19
2023-09-08T10:58:44.661Z,93200.09
2023-09-08T11:01:18.516Z,93195.50
2023-09-08T11:03:51.897Z,93195.38
2023-09-08T11:06:25.026Z,93178.53
2023-09-08T11:08:57.668Z,93195.31
2023-09-08T11:11:27.767Z,93194.72
2023-09-08T11:13:59.082Z,93192.50
2023-09-08T11:16:33.111Z,93188.59
2023-09-08T11:19:06.103Z,93184.78
2023-09-08T11:21:38.501Z,93181.69
2023-09-08T11:24:10.952Z,93199.03
2023-09-08T11:26:41.546Z,93204.22
2023-09-08T11:29:11.136Z,93201.09
2023-09-08T11:31:40.893Z,93187.50
2023-09-08T11:34:10.573Z,93187.47
2023-09-08T11:36:41.646Z,93183.56
2023-09-08T11:39:13.091Z,93168.72
2023-09-08T11:41:43.305Z,93164.44
2023-09-08T11:44:17.532Z,93153.28
2023-09-08T11:46:47.477Z,93152.50
2023-09-08T11:49:17.135Z,93159.91
2023-09-08T11:51:49.394Z,93158.06
2023-09-08T11:54:19.467Z,93166.91
2023-09-08T11:56:49.193Z,93158.50
2023-09-08T11:59:19.682Z,93166.22
2023-09-08T12:01:49.472Z,93162.88
2023-09-08T12:04:22.496Z,93163.31
2023-09-08T12:06:57.022Z,93159.09
2023-09-08T12:09:27.561Z,93159.31
2023-09-08T12:11:57.182Z,93147.84
2023-09-08T12:14:28.531Z,93145.28
2023-09-08T12:17:09.804Z,93155.16
2023-09-08T12:19:39.775Z,93147.94
2023-09-08T12:22:13.197Z,93139.06
2023-09-08T12:25:03.493Z,93132.31
2023-09-08T12:27:33.046Z,93120.31
2023-09-08T12:30:05.603Z,93108.50
2023-09-08T12:32:36.168Z,93100.13
2023-09-08T12:35:07.909Z,93104.44
2023-09-08T12:37:39.308Z,93111.72
2023-09-08T12:40:11.433Z,93108.19
2023-09-08T12:42:44.614Z,93102.16
2023-09-08T12:48:25.672Z,93099.22
2023-09-08T12:50:55.325Z,93111.66
2023-09-08T12:53:25.747Z,93111.81
2023-09-08T12:55:55.421Z,93112.81
2023-09-08T12:58:25.006Z,93112.78
2023-09-08T13:00:54.703Z,93106.72
2023-09-08T13:03:27.085Z,93104.38
2023-09-08T13:05:56.750Z,93110.44
2023-09-08T13:08:26.542Z,93106.66
2023-09-08T13:10:56.328Z,93106.88
2023-09-08T13:13:25.964Z,93109.03
2023-09-08T13:15:55.723Z,93100.19
2023-09-08T13:18:26.938Z,93101.34
2023-09-08T13:20:56.598Z,93097.69
2023-09-08T13:23:26.515Z,93085.19
2023-09-08T13:25:56.276Z,93092.44
2023-09-08T13:28:25.872Z,93097.94
2023-09-08T13:30:55.872Z,93101.44
2023-09-08T13:33:27.170Z,93118.97
2023-09-08T13:35:57.516Z,93104.94
2023-09-08T13:38:27.258Z,93093.72
2023-09-08T13:40:57.415Z,93109.72
2023-09-08T13:43:27.489Z,93104.78
2023-09-08T13:45:57.516Z,93106.00
2023-09-08T13:48:29.520Z,93106.56
2023-09-08T13:51:06.899Z,93097.41
2023-09-08T13:53:43.369Z,93112.72
2023-09-08T13:56:20.022Z,93117.72
2023-09-08T13:58:52.011Z,93108.63
2023-09-08T14:01:33.745Z,93109.84
2023-09-08T14:06:41.721Z,93109.03
2023-09-08T14:09:42.925Z,93106.97
2023-09-08T14:14:42.223Z,93105.81
2023-09-08T14:17:12.104Z,93117.41
2023-09-08T14:19:43.356Z,93107.16
2023-09-08T14:22:13.043Z,93105.72
2023-09-08T14:24:42.604Z,93116.38
2023-09-08T14:27:12.376Z,93111.88
2023-09-08T14:29:42.180Z,93106.38
2023-09-08T14:32:11.751Z,93109.66
2023-09-08T14:34:42.812Z,93109.88
2023-09-08T14:37:12.339Z,93110.22
2023-09-08T14:39:41.834Z,93110.69
2023-09-08T14:42:12.788Z,93103.34
2023-09-08T14:44:42.501Z,93102.31
2023-09-08T14:47:12.368Z,93103.81
2023-09-08T14:49:44.560Z,93098.28
2023-09-08T14:52:14.267Z,93092.22
2023-09-08T14:54:44.602Z,93100.94
2023-09-08T14:57:14.428Z,93091.69
2023-09-08T14:59:44.338Z,93094.53
2023-09-08T15:02:14.512Z,93096.72
2023-09-08T15:04:45.699Z,93093.22
2023-09-08T15:07:15.571Z,93086.53
2023-09-08T15:09:45.309Z,93091.75
2023-09-08T15:12:15.046Z,93089.47
2023-09-08T15:14:44.638Z,93091.22
2023-09-08T15:17:15.100Z,93093.88
2023-09-08T15:19:46.185Z,93092.31
2023-09-08T15:22:15.978Z,93083.41
2023-09-08T15:24:45.658Z,93087.91
2023-09-08T15:27:15.372Z,93076.44
2023-09-08T15:29:45.069Z,93083.69
2023-09-08T15:32:14.704Z,93076.25
2023-09-08T15:34:48.407Z,93081.44
2023-09-08T15:37:18.073Z,93081.19
2023-09-08T15:39:49.822Z,93086.66
2023-09-08T15:42:19.608Z,93077.56
2023-09-08T15:44:49.298Z,93079.38
2023-09-08T15:48:25.550Z,93079.09
2023-09-08T15:50:55.192Z,93075.16
2023-09-08T15:53:25.094Z,93080.72
2023-09-08T15:55:54.775Z,93076.28
2023-09-08T15:58:24.544Z,93084.47
2023-09-08T16:00:54.315Z,93077.38
2023-09-08T16:03:25.681Z,93080.19
2023-09-08T16:05:55.428Z,93078.06
2023-09-08T16:08:25.442Z,93081.09
2023-09-08T16:10:55.270Z,93084.25
2023-09-08T16:13:25.078Z,93084.47
2023-09-08T16:15:54.856Z,93083.53
2023-09-08T16:18:26.230Z,93089.00
2023-09-08T16:20:55.999Z,93088.25
2023-09-08T16:23:25.844Z,93093.94
2023-09-08T16:25:55.448Z,93098.63
2023-09-08T16:28:25.140Z,93105.19
2023-09-08T16:30:54.900Z,93110.91
2023-09-08T16:33:25.996Z,93111.78
2023-09-08T16:35:57.700Z,93112.78
2023-09-08T16:38:27.279Z,93113.13
2023-09-08T16:40:59.213Z,93112.16
2023-09-08T16:43:29.228Z,93123.28
2023-09-08T16:45:59.007Z,93117.81
2023-09-08T16:48:30.273Z,93114.66
2023-09-08T16:50:59.974Z,93119.16
2023-09-08T16:53:29.580Z,93119.69
2023-09-08T16:55:59.338Z,93116.06
2023-09-08T16:58:28.909Z,93114.38
2023-09-08T17:00:58.732Z,93111.91
2023-09-08T17:03:29.954Z,93113.41
2023-09-08T17:05:59.839Z,93115.56
2023-09-08T17:08:30.130Z,93113.94
2023-09-08T17:11:04.918Z,93116.19
2023-09-08T17:13:36.315Z,93120.03
2023-09-08T17:16:06.531Z,93127.69
2023-09-08T17:18:37.741Z,93125.50
2023-09-08T17:21:07.593Z,93118.38
2023-09-08T17:23:37.550Z,93135.28
2023-09-08T17:26:08.869Z,93133.31
2023-09-08T17:28:38.596Z,93134.66
2023-09-08T17:31:08.337Z,93130.16
2023-09-08T17:33:39.636Z,93131.16
2023-09-08T17:36:09.613Z,93127.00
2023-09-08T17:38:39.399Z,93132.50
2023-09-08T17:41:09.207Z,93134.31
2023-09-08T17:43:39.134Z,93132.69
2023-09-08T17:46:09.434Z,93133.19
2023-09-08T17:48:40.582Z,93138.00
2023-09-08T17:51:10.417Z,93144.63
2023-09-08T17:53:40.121Z,93139.00
2023-09-08T17:56:09.820Z,93134.34
2023-09-08T17:58:39.491Z,93139.50
2023-09-08T18:01:09.225Z,93148.09
2023-09-08T18:03:41.209Z,93144.78
2023-09-08T18:06:11.119Z,93140.81
2023-09-08T18:08:41.166Z,93146.59
2023-09-08T18:11:11.048Z,93142.78
2023-09-08T18:13:42.075Z,93152.06
2023-09-08T18:16:11.950Z,93153.06
2023-09-08T18:18:44.037Z,93155.72
2023-09-08T18:21:13.784Z,93161.16
2023-09-08T18:23:44.944Z,93157.53
2023-09-08T18:26:17.121Z,93152.88
2023-09-08T18:28:47.007Z,93156.53
2023-09-08T18:31:16.948Z,93156.69
2023-09-08T18:33:48.289Z,93153.38
2023-09-08T18:36:18.017Z,93148.41
2023-09-08T18:38:47.579Z,93143.13
2023-09-08T18:41:18.622Z,93145.59
2023-09-08T18:43:48.419Z,93151.06
2023-09-08T18:48:25.420Z,93151.31
2023-09-08T18:50:55.537Z,93149.47
2023-09-08T18:53:25.411Z,93148.13
2023-09-08T18:55:55.118Z,93145.47
2023-09-08T18:58:25.890Z,93144.09
2023-09-08T19:00:57.160Z,93148.19
2023-09-08T19:03:28.390Z,93143.16
2023-09-08T19:05:58.152Z,93147.44
2023-09-08T19:08:29.062Z,93148.25
2023-09-08T19:11:00.614Z,93150.28
2023-09-08T19:13:30.361Z,93150.22
2023-09-08T19:15:59.943Z,93157.75
2023-09-08T19:18:30.951Z,93156.97
2023-09-08T19:21:00.758Z,93153.13
2023-09-08T19:23:30.328Z,93155.41
2023-09-08T19:25:59.941Z,93157.47
2023-09-08T19:28:29.721Z,93152.72
2023-09-08T19:30:59.973Z,93152.44
2023-09-08T19:33:31.175Z,93148.03
2023-09-08T19:36:01.066Z,93155.97
2023-09-08T19:38:32.249Z,93155.78
2023-09-08T19:41:05.781Z,93159.09
2023-09-08T19:43:35.882Z,93159.06
2023-09-08T19:46:06.780Z,93154.72
2023-09-08T19:48:39.134Z,93157.44
2023-09-08T19:51:08.820Z,93161.00
2023-09-08T19:53:38.701Z,93155.78
2023-09-08T19:56:08.728Z,93156.16
2023-09-08T19:58:38.574Z,93153.97
2023-09-08T20:01:09.033Z,93159.09
2023-09-08T20:03:40.885Z,93167.91
2023-09-08T20:06:10.634Z,93162.69
2023-09-08T20:08:40.185Z,93160.97
2023-09-08T20:11:09.953Z,93171.88
2023-09-08T20:13:39.847Z,93168.03
2023-09-08T20:16:10.790Z,93166.94
2023-09-08T20:18:42.582Z,93165.03
2023-09-08T20:21:12.335Z,93166.41
2023-09-08T20:23:42.250Z,93170.16
2023-09-08T20:26:11.995Z,93176.59
2023-09-08T20:28:41.614Z,93183.38
2023-09-08T20:31:16.743Z,93178.28
2023-09-08T20:33:49.882Z,93181.59
2023-09-08T20:36:19.384Z,93184.22
2023-09-08T20:38:49.336Z,93183.28
2023-09-08T20:41:19.019Z,93187.44
2023-09-08T20:43:48.984Z,93185.78
2023-09-08T20:46:19.058Z,93182.19
2023-09-08T20:48:50.318Z,93181.50
2023-09-08T20:51:22.233Z,93184.28
2023-09-08T20:53:52.153Z,93180.94
2023-09-08T20:56:21.679Z,93184.28
2023-09-08T20:58:51.245Z,93184.28
2023-09-08T21:01:20.939Z,93183.38
2023-09-08T21:03:52.015Z,93193.19
2023-09-08T21:06:22.842Z,93185.03
2023-09-08T21:08:53.575Z,93187.66
2023-09-08T21:11:23.390Z,93192.50
2023-09-08T21:13:53.073Z,93188.91
2023-09-08T21:16:22.759Z,93195.78
2023-09-08T21:18:53.913Z,93187.91
2023-09-08T21:21:23.495Z,93189.25
2023-09-08T21:23:53.076Z,93201.56
2023-09-08T21:26:22.670Z,93193.81
2023-09-08T21:28:52.542Z,93194.06
2023-09-08T21:31:22.209Z,93190.50
2023-09-08T21:33:54.248Z,93194.88
2023-09-08T21:36:23.993Z,93188.38
2023-09-08T21:38:56.272Z,93190.00
2023-09-08T21:41:26.791Z,93188.34
2023-09-08T21:43:56.542Z,93192.38
2023-09-08T21:48:25.155Z,93195.09
2023-09-08T21:50:54.923Z,93198.56
2023-09-08T21:53:24.582Z,93194.50
2023-09-08T21:55:54.130Z,93190.03
2023-09-08T21:58:23.833Z,93194.84
2023-09-08T22:00:53.382Z,93192.34
2023-09-08T22:03:24.692Z,93196.22
2023-09-08T22:05:54.461Z,93193.50
2023-09-08T22:08:24.369Z,93196.44
2023-09-08T22:10:54.971Z,93196.78
2023-09-08T22:13:26.073Z,93199.88
2023-09-08T22:15:55.751Z,93198.63
2023-09-08T22:18:27.071Z,93196.59
2023-09-08T22:20:57.205Z,93201.38
2023-09-08T22:23:27.863Z,93202.28
2023-09-08T22:25:57.723Z,93204.09
2023-09-08T22:28:27.367Z,93205.75
2023-09-08T22:30:57.443Z,93202.03
2023-09-08T22:33:30.781Z,93200.47
2023-09-08T22:36:01.112Z,93191.53
2023-09-08T22:38:30.694Z,93191.25
2023-09-08T22:41:00.322Z,93200.69
2023-09-08T22:43:30.273Z,93194.59
2023-09-08T22:45:59.863Z,93193.31
2023-09-08T22:48:31.193Z,93188.19
2023-09-08T22:51:02.314Z,93192.03
2023-09-08T22:53:34.109Z,93183.94
2023-09-08T22:56:04.303Z,93176.06
2023-09-08T22:58:42.971Z,93181.59
2023-09-08T23:01:12.753Z,93190.94
2023-09-08T23:03:43.979Z,93187.97
2023-09-08T23:06:14.997Z,93187.91
2023-09-08T23:08:44.683Z,93187.59
2023-09-08T23:11:14.395Z,93194.88
2023-09-08T23:13:44.284Z,93188.66
2023-09-08T23:16:14.753Z,93197.72
2023-09-08T23:18:45.846Z,93189.88
2023-09-08T23:21:15.626Z,93187.47
2023-09-08T23:23:45.286Z,93183.56
2023-09-08T23:26:14.888Z,93181.91
2023-09-08T23:28:44.621Z,93179.44
2023-09-08T23:31:14.339Z,93177.88
2023-09-08T23:33:47.617Z,93178.13
2023-09-08T23:36:17.666Z,93185.53
2023-09-08T23:38:47.806Z,93185.13
2023-09-08T23:41:17.459Z,93187.38
2023-09-08T23:43:47.079Z,93174.59
2023-09-08T23:46:17.497Z,93173.19
2023-09-08T23:48:48.604Z,93177.88
2023-09-08T23:51:18.333Z,93168.44
2023-09-08T23:53:48.025Z,93167.72
2023-09-08T23:56:17.829Z,93167.72
2023-09-08T23:58:47.522Z,93165.00
